sensor_id;sensor_type;location;lat;lon;timestamp;P1;durP1;ratioP1;P2;durP2;ratioP2
1122;SDS011;548;48.778;9.252;2023-08-06T00:01:15;78.63;;;39.20;;
1122;SDS011;548;48.778;9.252;2023-08-06T00:03:43;80.60;;;40.17;;
1122;SDS011;548;48.778;9.252;2023-08-06T00:06:10;79.43;;;40.30;;
1122;SDS011;548;48.778;9.252;2023-08-06T00:08:37;78.47;;;39.60;;
1122;SDS011;548;48.778;9.252;2023-08-06T00:11:05;81.70;;;41.53;;
1122;SDS011;548;48.778;9.252;2023-08-06T00:13:31;81.77;;;39.87;;
1122;SDS011;548;48.778;9.252;2023-08-06T00:16:07;81.37;;;40.50;;
1122;SDS011;548;48.778;9.252;2023-08-06T00:18:35;80.37;;;40.40;;
1122;SDS011;548;48.778;9.252;2023-08-06T00:21:01;81.50;;;40.73;;
1122;SDS011;548;48.778;9.252;2023-08-06T00:23:28;82.07;;;40.70;;
1122;SDS011;548;48.778;9.252;2023-08-06T00:25:55;87.73;;;41.57;;
1122;SDS011;548;48.778;9.252;2023-08-06T00:28:23;83.40;;;40.80;;
1122;SDS011;548;48.778;9.252;2023-08-06T00:30:52;84.80;;;41.90;;
1122;SDS011;548;48.778;9.252;2023-08-06T00:33:19;93.93;;;59.70;;
1122;SDS011;548;48.778;9.252;2023-08-06T00:35:45;92.77;;;54.10;;
1122;SDS011;548;48.778;9.252;2023-08-06T00:38:12;95.30;;;53.27;;
1122;SDS011;548;48.778;9.252;2023-08-06T00:40:39;92.27;;;49.00;;
1122;SDS011;548;48.778;9.252;2023-08-06T00:43:06;92.57;;;48.00;;
1122;SDS011;548;48.778;9.252;2023-08-06T00:45:35;95.17;;;48.90;;
1122;SDS011;548;48.778;9.252;2023-08-06T00:48:02;93.40;;;50.27;;
1122;SDS011;548;48.778;9.252;2023-08-06T00:50:31;92.13;;;49.50;;
1122;SDS011;548;48.778;9.252;2023-08-06T00:52:57;93.97;;;48.23;;
1122;SDS011;548;48.778;9.252;2023-08-06T00:55:25;96.13;;;49.23;;
1122;SDS011;548;48.778;9.252;2023-08-06T00:57:52;98.70;;;52.80;;
1122;SDS011;548;48.778;9.252;2023-08-06T01:00:21;94.80;;;52.63;;
1122;SDS011;548;48.778;9.252;2023-08-06T01:02:51;93.07;;;47.50;;
1122;SDS011;548;48.778;9.252;2023-08-06T01:05:18;90.77;;;49.70;;
1122;SDS011;548;48.778;9.252;2023-08-06T01:07:48;93.27;;;49.10;;
1122;SDS011;548;48.778;9.252;2023-08-06T01:10:30;94.47;;;50.03;;
1122;SDS011;548;48.778;9.252;2023-08-06T01:13:08;92.27;;;48.23;;
1122;SDS011;548;48.778;9.252;2023-08-06T01:15:43;90.20;;;46.73;;
1122;SDS011;548;48.778;9.252;2023-08-06T01:18:13;89.57;;;48.40;;
1122;SDS011;548;48.778;9.252;2023-08-06T01:20:42;90.50;;;50.73;;
1122;SDS011;548;48.778;9.252;2023-08-06T01:23:09;89.90;;;49.20;;
1122;SDS011;548;48.778;9.252;2023-08-06T01:25:38;87.80;;;49.37;;
1122;SDS011;548;48.778;9.252;2023-08-06T01:28:15;89.27;;;49.80;;
1122;SDS011;548;48.778;9.252;2023-08-06T01:30:49;92.47;;;45.60;;
1122;SDS011;548;48.778;9.252;2023-08-06T01:33:19;89.30;;;48.10;;
1122;SDS011;548;48.778;9.252;2023-08-06T01:35:48;92.53;;;48.20;;
1122;SDS011;548;48.778;9.252;2023-08-06T01:38:16;87.77;;;46.70;;
1122;SDS011;548;48.778;9.252;2023-08-06T01:40:43;87.83;;;47.93;;
1122;SDS011;548;48.778;9.252;2023-08-06T01:43:10;95.77;;;48.87;;
1122;SDS011;548;48.778;9.252;2023-08-06T01:45:36;87.80;;;48.43;;
1122;SDS011;548;48.778;9.252;2023-08-06T01:48:03;88.17;;;46.80;;
1122;SDS011;548;48.778;9.252;2023-08-06T01:50:30;86.90;;;47.00;;
1122;SDS011;548;48.778;9.252;2023-08-06T01:52:58;84.53;;;43.60;;
1122;SDS011;548;48.778;9.252;2023-08-06T01:55:25;88.47;;;45.00;;
1122;SDS011;548;48.778;9.252;2023-08-06T01:57:51;85.43;;;45.30;;
1122;SDS011;548;48.778;9.252;2023-08-06T02:00:18;81.17;;;40.10;;
1122;SDS011;548;48.778;9.252;2023-08-06T02:02:45;83.67;;;41.23;;
1122;SDS011;548;48.778;9.252;2023-08-06T02:05:11;81.00;;;40.53;;
1122;SDS011;548;48.778;9.252;2023-08-06T02:07:38;84.00;;;39.10;;
1122;SDS011;548;48.778;9.252;2023-08-06T02:10:07;81.13;;;39.80;;
1122;SDS011;548;48.778;9.252;2023-08-06T02:12:34;85.07;;;40.33;;
1122;SDS011;548;48.778;9.252;2023-08-06T02:15:01;80.17;;;38.43;;
1122;SDS011;548;48.778;9.252;2023-08-06T02:17:27;80.40;;;39.27;;
1122;SDS011;548;48.778;9.252;2023-08-06T02:19:54;85.20;;;42.43;;
1122;SDS011;548;48.778;9.252;2023-08-06T02:22:21;83.33;;;43.50;;
1122;SDS011;548;48.778;9.252;2023-08-06T02:24:48;83.20;;;43.07;;
1122;SDS011;548;48.778;9.252;2023-08-06T02:27:16;84.20;;;42.73;;
1122;SDS011;548;48.778;9.252;2023-08-06T02:29:43;81.43;;;39.77;;
1122;SDS011;548;48.778;9.252;2023-08-06T02:32:10;82.43;;;39.37;;
1122;SDS011;548;48.778;9.252;2023-08-06T02:34:37;81.80;;;41.23;;
1122;SDS011;548;48.778;9.252;2023-08-06T02:37:03;81.57;;;37.20;;
1122;SDS011;548;48.778;9.252;2023-08-06T02:39:30;78.87;;;38.20;;
1122;SDS011;548;48.778;9.252;2023-08-06T02:41:58;79.63;;;36.00;;
1122;SDS011;548;48.778;9.252;2023-08-06T02:44:28;80.50;;;38.37;;
1122;SDS011;548;48.778;9.252;2023-08-06T02:46:54;76.97;;;33.53;;
1122;SDS011;548;48.778;9.252;2023-08-06T02:49:21;79.10;;;36.90;;
1122;SDS011;548;48.778;9.252;2023-08-06T02:51:48;79.60;;;36.20;;
1122;SDS011;548;48.778;9.252;2023-08-06T02:54:14;78.53;;;36.17;;
1122;SDS011;548;48.778;9.252;2023-08-06T02:56:42;78.43;;;36.90;;
1122;SDS011;548;48.778;9.252;2023-08-06T02:59:10;79.03;;;35.97;;
1122;SDS011;548;48.778;9.252;2023-08-06T03:01:38;77.73;;;34.27;;
1122;SDS011;548;48.778;9.252;2023-08-06T03:04:05;78.00;;;35.00;;
1122;SDS011;548;48.778;9.252;2023-08-06T03:06:32;81.97;;;37.50;;
1122;SDS011;548;48.778;9.252;2023-08-06T03:08:58;77.83;;;35.47;;
1122;SDS011;548;48.778;9.252;2023-08-06T03:11:24;77.50;;;36.07;;
1122;SDS011;548;48.778;9.252;2023-08-06T03:13:51;78.80;;;33.97;;
1122;SDS011;548;48.778;9.252;2023-08-06T03:16:17;78.03;;;36.30;;
1122;SDS011;548;48.778;9.252;2023-08-06T03:18:45;78.57;;;35.97;;
1122;SDS011;548;48.778;9.252;2023-08-06T03:21:12;78.07;;;36.37;;
1122;SDS011;548;48.778;9.252;2023-08-06T03:23:39;80.43;;;33.90;;
1122;SDS011;548;48.778;9.252;2023-08-06T03:26:06;77.53;;;34.53;;
1122;SDS011;548;48.778;9.252;2023-08-06T03:28:32;78.87;;;35.80;;
1122;SDS011;548;48.778;9.252;2023-08-06T03:30:59;76.20;;;32.53;;
1122;SDS011;548;48.778;9.252;2023-08-06T03:33:27;82.10;;;34.73;;
1122;SDS011;548;48.778;9.252;2023-08-06T03:35:55;76.00;;;30.33;;
1122;SDS011;548;48.778;9.252;2023-08-06T03:38:22;78.37;;;32.63;;
1122;SDS011;548;48.778;9.252;2023-08-06T03:40:49;78.37;;;35.30;;
1122;SDS011;548;48.778;9.252;2023-08-06T03:43:16;78.17;;;35.80;;
1122;SDS011;548;48.778;9.252;2023-08-06T03:45:42;77.37;;;35.10;;
1122;SDS011;548;48.778;9.252;2023-08-06T03:48:09;76.80;;;33.97;;
1122;SDS011;548;48.778;9.252;2023-08-06T03:50:36;79.80;;;38.70;;
1122;SDS011;548;48.778;9.252;2023-08-06T03:53:04;78.17;;;37.80;;
1122;SDS011;548;48.778;9.252;2023-08-06T03:55:31;79.10;;;36.40;;
1122;SDS011;548;48.778;9.252;2023-08-06T03:57:57;80.17;;;36.90;;
1122;SDS011;548;48.778;9.252;2023-08-06T04:00:24;77.93;;;36.37;;
1122;SDS011;548;48.778;9.252;2023-08-06T04:02:51;78.80;;;34.77;;
1122;SDS011;548;48.778;9.252;2023-08-06T04:05:18;78.20;;;37.10;;
1122;SDS011;548;48.778;9.252;2023-08-06T04:07:44;84.20;;;40.47;;
1122;SDS011;548;48.778;9.252;2023-08-06T04:10:12;87.60;;;51.87;;
1122;SDS011;548;48.778;9.252;2023-08-06T04:12:39;85.23;;;51.50;;
1122;SDS011;548;48.778;9.252;2023-08-06T04:15:06;89.73;;;55.80;;
1122;SDS011;548;48.778;9.252;2023-08-06T04:17:33;89.13;;;54.60;;
1122;SDS011;548;48.778;9.252;2023-08-06T04:20:00;87.37;;;55.17;;
1122;SDS011;548;48.778;9.252;2023-08-06T04:22:27;92.43;;;53.87;;
1122;SDS011;548;48.778;9.252;2023-08-06T04:24:54;89.77;;;56.60;;
1122;SDS011;548;48.778;9.252;2023-08-06T04:27:22;89.47;;;57.37;;
1122;SDS011;548;48.778;9.252;2023-08-06T04:29:48;89.37;;;55.80;;
1122;SDS011;548;48.778;9.252;2023-08-06T04:32:15;91.03;;;57.80;;
1122;SDS011;548;48.778;9.252;2023-08-06T04:34:42;94.10;;;56.23;;
1122;SDS011;548;48.778;9.252;2023-08-06T04:37:09;91.77;;;60.10;;
1122;SDS011;548;48.778;9.252;2023-08-06T04:39:36;90.50;;;59.47;;
1122;SDS011;548;48.778;9.252;2023-08-06T04:42:03;88.80;;;58.80;;
1122;SDS011;548;48.778;9.252;2023-08-06T04:44:31;89.20;;;58.13;;
1122;SDS011;548;48.778;9.252;2023-08-06T04:46:58;95.97;;;59.00;;
1122;SDS011;548;48.778;9.252;2023-08-06T04:49:25;90.67;;;59.30;;
1122;SDS011;548;48.778;9.252;2023-08-06T04:51:52;92.00;;;56.47;;
1122;SDS011;548;48.778;9.252;2023-08-06T04:54:18;89.87;;;57.40;;
1122;SDS011;548;48.778;9.252;2023-08-06T04:56:45;88.30;;;54.07;;
1122;SDS011;548;48.778;9.252;2023-08-06T04:59:12;87.60;;;55.77;;
1122;SDS011;548;48.778;9.252;2023-08-06T05:01:40;89.87;;;54.80;;
1122;SDS011;548;48.778;9.252;2023-08-06T05:04:06;87.20;;;57.10;;
1122;SDS011;548;48.778;9.252;2023-08-06T05:06:33;86.97;;;55.50;;
1122;SDS011;548;48.778;9.252;2023-08-06T05:09:00;87.47;;;56.00;;
1122;SDS011;548;48.778;9.252;2023-08-06T05:11:26;87.93;;;53.10;;
1122;SDS011;548;48.778;9.252;2023-08-06T05:13:53;84.67;;;53.20;;
1122;SDS011;548;48.778;9.252;2023-08-06T05:16:20;81.47;;;48.03;;
1122;SDS011;548;48.778;9.252;2023-08-06T05:18:48;80.80;;;42.73;;
1122;SDS011;548;48.778;9.252;2023-08-06T05:21:14;80.30;;;43.33;;
1122;SDS011;548;48.778;9.252;2023-08-06T05:23:42;80.57;;;40.97;;
1122;SDS011;548;48.778;9.252;2023-08-06T05:26:08;78.77;;;39.07;;
1122;SDS011;548;48.778;9.252;2023-08-06T05:28:35;78.07;;;39.30;;
1122;SDS011;548;48.778;9.252;2023-08-06T05:31:05;79.90;;;41.00;;
1122;SDS011;548;48.778;9.252;2023-08-06T05:33:32;78.27;;;37.37;;
1122;SDS011;548;48.778;9.252;2023-08-06T05:36:00;78.63;;;38.90;;
1122;SDS011;548;48.778;9.252;2023-08-06T05:38:26;78.47;;;37.30;;
1122;SDS011;548;48.778;9.252;2023-08-06T05:40:53;79.90;;;39.27;;
1122;SDS011;548;48.778;9.252;2023-08-06T05:43:20;77.50;;;38.10;;
1122;SDS011;548;48.778;9.252;2023-08-06T05:45:48;78.83;;;35.27;;
1122;SDS011;548;48.778;9.252;2023-08-06T05:48:15;77.43;;;34.83;;
1122;SDS011;548;48.778;9.252;2023-08-06T05:50:42;74.87;;;32.87;;
1122;SDS011;548;48.778;9.252;2023-08-06T05:53:10;73.97;;;30.90;;
1122;SDS011;548;48.778;9.252;2023-08-06T05:55:38;79.40;;;32.70;;
1122;SDS011;548;48.778;9.252;2023-08-06T05:58:05;73.87;;;30.73;;
1122;SDS011;548;48.778;9.252;2023-08-06T06:00:32;74.40;;;32.30;;
1122;SDS011;548;48.778;9.252;2023-08-06T06:02:59;77.07;;;32.50;;
1122;SDS011;548;48.778;9.252;2023-08-06T06:05:26;74.10;;;31.73;;
1122;SDS011;548;48.778;9.252;2023-08-06T06:07:53;78.10;;;34.60;;
1122;SDS011;548;48.778;9.252;2023-08-06T06:10:21;74.60;;;33.40;;
1122;SDS011;548;48.778;9.252;2023-08-06T06:12:48;75.27;;;32.77;;
1122;SDS011;548;48.778;9.252;2023-08-06T06:15:15;74.70;;;34.50;;
1122;SDS011;548;48.778;9.252;2023-08-06T06:17:41;74.03;;;32.43;;
1122;SDS011;548;48.778;9.252;2023-08-06T06:20:08;74.83;;;32.43;;
1122;SDS011;548;48.778;9.252;2023-08-06T06:22:35;75.67;;;34.60;;
1122;SDS011;548;48.778;9.252;2023-08-06T06:25:02;76.43;;;34.53;;
1122;SDS011;548;48.778;9.252;2023-08-06T06:27:30;73.70;;;30.77;;
1122;SDS011;548;48.778;9.252;2023-08-06T06:29:57;73.97;;;30.97;;
1122;SDS011;548;48.778;9.252;2023-08-06T06:32:24;77.17;;;33.13;;
1122;SDS011;548;48.778;9.252;2023-08-06T06:34:51;74.10;;;32.47;;
1122;SDS011;548;48.778;9.252;2023-08-06T06:37:18;73.73;;;32.80;;
1122;SDS011;548;48.778;9.252;2023-08-06T06:39:45;76.53;;;33.97;;
1122;SDS011;548;48.778;9.252;2023-08-06T06:42:11;76.87;;;32.77;;
1122;SDS011;548;48.778;9.252;2023-08-06T06:44:41;73.90;;;31.40;;
1122;SDS011;548;48.778;9.252;2023-08-06T06:47:08;75.40;;;31.90;;
1122;SDS011;548;48.778;9.252;2023-08-06T06:49:34;74.50;;;31.63;;
1122;SDS011;548;48.778;9.252;2023-08-06T06:52:01;74.17;;;31.43;;
1122;SDS011;548;48.778;9.252;2023-08-06T06:54:28;74.93;;;31.80;;
1122;SDS011;548;48.778;9.252;2023-08-06T06:56:55;73.67;;;32.00;;
1122;SDS011;548;48.778;9.252;2023-08-06T06:59:21;73.87;;;28.47;;
1122;SDS011;548;48.778;9.252;2023-08-06T07:01:49;74.67;;;30.60;;
1122;SDS011;548;48.778;9.252;2023-08-06T07:04:16;77.70;;;32.77;;
1122;SDS011;548;48.778;9.252;2023-08-06T07:06:43;73.23;;;31.00;;
1122;SDS011;548;48.778;9.252;2023-08-06T07:09:09;73.97;;;32.90;;
1122;SDS011;548;48.778;9.252;2023-08-06T07:11:36;75.50;;;32.70;;
1122;SDS011;548;48.778;9.252;2023-08-06T07:14:03;74.20;;;31.23;;
1122;SDS011;548;48.778;9.252;2023-08-06T07:16:30;73.20;;;29.40;;
1122;SDS011;548;48.778;9.252;2023-08-06T07:18:58;76.90;;;32.67;;
1122;SDS011;548;48.778;9.252;2023-08-06T07:21:24;73.60;;;31.33;;
1122;SDS011;548;48.778;9.252;2023-08-06T07:23:51;73.90;;;32.77;;
1122;SDS011;548;48.778;9.252;2023-08-06T07:29:05;75.47;;;36.57;;
1122;SDS011;548;48.778;9.252;2023-08-06T07:31:32;78.50;;;42.13;;
1122;SDS011;548;48.778;9.252;2023-08-06T07:34:00;80.27;;;46.07;;
1122;SDS011;548;48.778;9.252;2023-08-06T07:36:27;82.13;;;48.70;;
1122;SDS011;548;48.778;9.252;2023-08-06T07:38:54;82.63;;;50.57;;
1122;SDS011;548;48.778;9.252;2023-08-06T07:41:21;82.37;;;50.40;;
1122;SDS011;548;48.778;9.252;2023-08-06T07:43:48;85.70;;;50.20;;
1122;SDS011;548;48.778;9.252;2023-08-06T07:51:27;80.90;;;47.13;;
1122;SDS011;548;48.778;9.252;2023-08-06T07:53:54;81.83;;;48.90;;
1122;SDS011;548;48.778;9.252;2023-08-06T07:56:20;80.07;;;47.30;;
1122;SDS011;548;48.778;9.252;2023-08-06T07:58:47;81.27;;;44.47;;
1122;SDS011;548;48.778;9.252;2023-08-06T08:01:14;79.43;;;44.37;;
1122;SDS011;548;48.778;9.252;2023-08-06T08:03:41;77.97;;;42.90;;
1122;SDS011;548;48.778;9.252;2023-08-06T08:06:07;80.67;;;40.60;;
1122;SDS011;548;48.778;9.252;2023-08-06T08:08:35;75.30;;;36.00;;
1122;SDS011;548;48.778;9.252;2023-08-06T08:11:03;74.77;;;35.93;;
1122;SDS011;548;48.778;9.252;2023-08-06T08:13:31;74.50;;;35.27;;
1122;SDS011;548;48.778;9.252;2023-08-06T08:15:58;74.87;;;35.50;;
1122;SDS011;548;48.778;9.252;2023-08-06T08:18:25;75.00;;;35.97;;
1122;SDS011;548;48.778;9.252;2023-08-06T08:20:52;74.07;;;32.30;;
1122;SDS011;548;48.778;9.252;2023-08-06T08:23:18;73.17;;;31.20;;
1122;SDS011;548;48.778;9.252;2023-08-06T08:25:46;74.30;;;34.33;;
1122;SDS011;548;48.778;9.252;2023-08-06T08:28:13;74.87;;;33.97;;
1122;SDS011;548;48.778;9.252;2023-08-06T08:30:40;74.00;;;34.53;;
1122;SDS011;548;48.778;9.252;2023-08-06T08:33:07;73.00;;;31.77;;
1122;SDS011;548;48.778;9.252;2023-08-06T08:35:34;73.30;;;32.60;;
1122;SDS011;548;48.778;9.252;2023-08-06T08:38:02;72.80;;;31.43;;
1122;SDS011;548;48.778;9.252;2023-08-06T08:40:29;72.07;;;28.87;;
1122;SDS011;548;48.778;9.252;2023-08-06T08:42:59;73.23;;;31.30;;
1122;SDS011;548;48.778;9.252;2023-08-06T08:45:27;73.70;;;31.97;;
1122;SDS011;548;48.778;9.252;2023-08-06T08:47:55;72.20;;;30.17;;
1122;SDS011;548;48.778;9.252;2023-08-06T08:50:22;73.07;;;32.27;;
1122;SDS011;548;48.778;9.252;2023-08-06T08:52:49;72.30;;;29.27;;
1122;SDS011;548;48.778;9.252;2023-08-06T08:55:17;72.67;;;30.90;;
1122;SDS011;548;48.778;9.252;2023-08-06T08:57:46;72.43;;;29.70;;
1122;SDS011;548;48.778;9.252;2023-08-06T09:00:14;71.93;;;29.67;;
1122;SDS011;548;48.778;9.252;2023-08-06T09:02:41;71.97;;;29.57;;
1122;SDS011;548;48.778;9.252;2023-08-06T09:05:09;72.17;;;29.23;;
1122;SDS011;548;48.778;9.252;2023-08-06T09:07:38;71.67;;;28.87;;
1122;SDS011;548;48.778;9.252;2023-08-06T09:10:10;74.30;;;35.33;;
1122;SDS011;548;48.778;9.252;2023-08-06T09:12:38;77.10;;;40.80;;
1122;SDS011;548;48.778;9.252;2023-08-06T09:15:06;78.83;;;42.53;;
1122;SDS011;548;48.778;9.252;2023-08-06T09:17:35;76.93;;;40.50;;
1122;SDS011;548;48.778;9.252;2023-08-06T09:20:09;78.40;;;44.03;;
1122;SDS011;548;48.778;9.252;2023-08-06T09:27:47;76.50;;;40.57;;
1122;SDS011;548;48.778;9.252;2023-08-06T09:30:19;75.67;;;35.77;;
1122;SDS011;548;48.778;9.252;2023-08-06T09:32:57;73.47;;;33.17;;
1122;SDS011;548;48.778;9.252;2023-08-06T09:35:23;73.30;;;32.30;;
1122;SDS011;548;48.778;9.252;2023-08-06T09:37:50;73.73;;;32.50;;
1122;SDS011;548;48.778;9.252;2023-08-06T09:40:24;77.80;;;30.80;;
1122;SDS011;548;48.778;9.252;2023-08-06T09:42:51;72.80;;;31.57;;
1122;SDS011;548;48.778;9.252;2023-08-06T09:45:19;72.37;;;30.27;;
1122;SDS011;548;48.778;9.252;2023-08-06T09:47:47;72.73;;;32.07;;
1122;SDS011;548;48.778;9.252;2023-08-06T09:50:18;73.20;;;32.50;;
1122;SDS011;548;48.778;9.252;2023-08-06T09:52:46;73.47;;;32.53;;
1122;SDS011;548;48.778;9.252;2023-08-06T09:55:14;72.80;;;31.43;;
1122;SDS011;548;48.778;9.252;2023-08-06T09:57:41;72.60;;;30.37;;
1122;SDS011;548;48.778;9.252;2023-08-06T10:00:08;73.17;;;30.87;;
1122;SDS011;548;48.778;9.252;2023-08-06T10:02:37;73.53;;;31.90;;
1122;SDS011;548;48.778;9.252;2023-08-06T10:05:05;71.70;;;28.27;;
1122;SDS011;548;48.778;9.252;2023-08-06T10:07:33;72.67;;;30.90;;
1122;SDS011;548;48.778;9.252;2023-08-06T10:10:01;75.90;;;30.77;;
1122;SDS011;548;48.778;9.252;2023-08-06T10:12:34;72.67;;;31.27;;
1122;SDS011;548;48.778;9.252;2023-08-06T10:15:04;72.17;;;29.70;;
1122;SDS011;548;48.778;9.252;2023-08-06T10:17:35;76.40;;;40.70;;
1122;SDS011;548;48.778;9.252;2023-08-06T10:20:03;79.50;;;47.20;;
1122;SDS011;548;48.778;9.252;2023-08-06T10:22:34;80.23;;;48.67;;
1122;SDS011;548;48.778;9.252;2023-08-06T10:25:01;81.10;;;50.10;;
1122;SDS011;548;48.778;9.252;2023-08-06T10:27:31;81.77;;;51.53;;
1122;SDS011;548;48.778;9.252;2023-08-06T10:32:51;82.47;;;54.60;;
1122;SDS011;548;48.778;9.252;2023-08-06T10:35:29;82.60;;;54.50;;
1122;SDS011;548;48.778;9.252;2023-08-06T10:37:59;83.80;;;57.50;;
1122;SDS011;548;48.778;9.252;2023-08-06T10:40:32;83.43;;;56.33;;
1122;SDS011;548;48.778;9.252;2023-08-06T10:42:59;82.30;;;55.27;;
1122;SDS011;548;48.778;9.252;2023-08-06T10:45:26;83.07;;;54.80;;
1122;SDS011;548;48.778;9.252;2023-08-06T10:47:56;81.77;;;53.10;;
1122;SDS011;548;48.778;9.252;2023-08-06T10:50:23;81.17;;;52.97;;
1122;SDS011;548;48.778;9.252;2023-08-06T10:52:50;81.43;;;53.07;;
1122;SDS011;548;48.778;9.252;2023-08-06T10:55:26;80.63;;;51.03;;
1122;SDS011;548;48.778;9.252;2023-08-06T10:57:54;78.40;;;45.47;;
1122;SDS011;548;48.778;9.252;2023-08-06T11:00:22;78.20;;;41.80;;
1122;SDS011;548;48.778;9.252;2023-08-06T11:02:49;75.70;;;38.50;;
1122;SDS011;548;48.778;9.252;2023-08-06T11:05:18;75.53;;;37.80;;
1122;SDS011;548;48.778;9.252;2023-08-06T11:07:48;75.47;;;37.13;;
1122;SDS011;548;48.778;9.252;2023-08-06T11:10:16;75.43;;;37.17;;
1122;SDS011;548;48.778;9.252;2023-08-06T11:12:45;79.03;;;40.20;;
1122;SDS011;548;48.778;9.252;2023-08-06T11:15:11;76.70;;;39.10;;
1122;SDS011;548;48.778;9.252;2023-08-06T11:17:39;75.07;;;33.60;;
1122;SDS011;548;48.778;9.252;2023-08-06T11:20:07;75.37;;;35.33;;
1122;SDS011;548;48.778;9.252;2023-08-06T11:22:35;74.20;;;32.83;;
1122;SDS011;548;48.778;9.252;2023-08-06T11:25:03;76.40;;;34.80;;
1122;SDS011;548;48.778;9.252;2023-08-06T11:27:30;73.37;;;32.60;;
1122;SDS011;548;48.778;9.252;2023-08-06T11:30:01;73.43;;;31.87;;
1122;SDS011;548;48.778;9.252;2023-08-06T11:32:28;73.40;;;32.30;;
1122;SDS011;548;48.778;9.252;2023-08-06T11:34:55;73.50;;;31.47;;
1122;SDS011;548;48.778;9.252;2023-08-06T11:37:22;73.20;;;32.10;;
1122;SDS011;548;48.778;9.252;2023-08-06T11:39:52;73.10;;;30.23;;
1122;SDS011;548;48.778;9.252;2023-08-06T11:42:19;73.77;;;33.10;;
1122;SDS011;548;48.778;9.252;2023-08-06T11:44:48;73.83;;;32.10;;
1122;SDS011;548;48.778;9.252;2023-08-06T11:47:16;73.37;;;31.83;;
1122;SDS011;548;48.778;9.252;2023-08-06T11:49:44;73.50;;;30.70;;
1122;SDS011;548;48.778;9.252;2023-08-06T11:52:13;73.90;;;30.50;;
1122;SDS011;548;48.778;9.252;2023-08-06T11:54:44;73.43;;;31.30;;
1122;SDS011;548;48.778;9.252;2023-08-06T11:57:11;72.97;;;30.27;;
1122;SDS011;548;48.778;9.252;2023-08-06T11:59:38;76.27;;;31.83;;
1122;SDS011;548;48.778;9.252;2023-08-06T12:02:08;73.57;;;32.30;;
1122;SDS011;548;48.778;9.252;2023-08-06T12:07:30;76.27;;;33.97;;
1122;SDS011;548;48.778;9.252;2023-08-06T12:09:58;74.87;;;34.97;;
1122;SDS011;548;48.778;9.252;2023-08-06T12:12:25;76.47;;;35.93;;
1122;SDS011;548;48.778;9.252;2023-08-06T12:14:52;75.30;;;34.30;;
1122;SDS011;548;48.778;9.252;2023-08-06T12:17:20;75.27;;;34.00;;
1122;SDS011;548;48.778;9.252;2023-08-06T12:19:49;78.67;;;32.37;;
1122;SDS011;548;48.778;9.252;2023-08-06T12:22:18;76.00;;;33.00;;
1122;SDS011;548;48.778;9.252;2023-08-06T12:24:45;75.17;;;34.83;;
1122;SDS011;548;48.778;9.252;2023-08-06T12:27:13;75.50;;;31.23;;
1122;SDS011;548;48.778;9.252;2023-08-06T12:29:40;75.10;;;32.87;;
1122;SDS011;548;48.778;9.252;2023-08-06T12:32:09;74.20;;;31.57;;
1122;SDS011;548;48.778;9.252;2023-08-06T12:34:38;74.87;;;32.03;;
1122;SDS011;548;48.778;9.252;2023-08-06T12:37:05;75.50;;;31.73;;
1122;SDS011;548;48.778;9.252;2023-08-06T12:39:33;73.50;;;30.70;;
1122;SDS011;548;48.778;9.252;2023-08-06T12:42:03;73.57;;;30.70;;
1122;SDS011;548;48.778;9.252;2023-08-06T12:44:31;80.37;;;31.83;;
1122;SDS011;548;48.778;9.252;2023-08-06T12:46:58;75.10;;;32.07;;
1122;SDS011;548;48.778;9.252;2023-08-06T12:49:25;74.37;;;32.63;;
1122;SDS011;548;48.778;9.252;2023-08-06T12:51:53;75.80;;;29.10;;
1122;SDS011;548;48.778;9.252;2023-08-06T12:54:21;73.67;;;29.13;;
1122;SDS011;548;48.778;9.252;2023-08-06T12:56:53;72.10;;;29.20;;
1122;SDS011;548;48.778;9.252;2023-08-06T12:59:20;74.10;;;29.90;;
1122;SDS011;548;48.778;9.252;2023-08-06T13:01:47;72.07;;;29.30;;
1122;SDS011;548;48.778;9.252;2023-08-06T13:04:14;72.50;;;29.60;;
1122;SDS011;548;48.778;9.252;2023-08-06T13:06:41;72.17;;;30.10;;
1122;SDS011;548;48.778;9.252;2023-08-06T13:09:10;71.80;;;28.40;;
1122;SDS011;548;48.778;9.252;2023-08-06T13:11:38;71.80;;;28.60;;
1122;SDS011;548;48.778;9.252;2023-08-06T13:14:07;72.17;;;29.80;;
1122;SDS011;548;48.778;9.252;2023-08-06T13:16:36;72.67;;;28.90;;
1122;SDS011;548;48.778;9.252;2023-08-06T13:19:05;72.10;;;28.83;;
1122;SDS011;548;48.778;9.252;2023-08-06T13:21:58;71.60;;;27.80;;
1122;SDS011;548;48.778;9.252;2023-08-06T13:24:27;72.30;;;29.03;;
1122;SDS011;548;48.778;9.252;2023-08-06T13:26:54;73.87;;;29.83;;
1122;SDS011;548;48.778;9.252;2023-08-06T13:29:25;74.37;;;29.20;;
1122;SDS011;548;48.778;9.252;2023-08-06T13:31:52;73.37;;;30.73;;
1122;SDS011;548;48.778;9.252;2023-08-06T13:34:20;72.40;;;30.37;;
1122;SDS011;548;48.778;9.252;2023-08-06T13:36:46;72.17;;;28.83;;
1122;SDS011;548;48.778;9.252;2023-08-06T13:39:13;71.90;;;28.63;;
1122;SDS011;548;48.778;9.252;2023-08-06T13:41:42;72.30;;;29.37;;
1122;SDS011;548;48.778;9.252;2023-08-06T13:44:09;71.13;;;27.93;;
1122;SDS011;548;48.778;9.252;2023-08-06T13:46:41;72.60;;;30.93;;
1122;SDS011;548;48.778;9.252;2023-08-06T13:49:08;72.20;;;29.90;;
1122;SDS011;548;48.778;9.252;2023-08-06T13:51:37;71.67;;;28.20;;
1122;SDS011;548;48.778;9.252;2023-08-06T13:54:06;73.37;;;30.50;;
1122;SDS011;548;48.778;9.252;2023-08-06T13:56:37;71.57;;;28.80;;
1122;SDS011;548;48.778;9.252;2023-08-06T13:59:07;71.10;;;28.60;;
1122;SDS011;548;48.778;9.252;2023-08-06T14:01:38;72.87;;;30.13;;
1122;SDS011;548;48.778;9.252;2023-08-06T14:04:06;72.40;;;30.97;;
1122;SDS011;548;48.778;9.252;2023-08-06T14:06:35;71.90;;;29.10;;
1122;SDS011;548;48.778;9.252;2023-08-06T14:09:08;72.20;;;29.80;;
1122;SDS011;548;48.778;9.252;2023-08-06T14:11:37;71.90;;;29.30;;
1122;SDS011;548;48.778;9.252;2023-08-06T14:14:04;71.80;;;30.07;;
1122;SDS011;548;48.778;9.252;2023-08-06T14:16:33;72.47;;;28.43;;
1122;SDS011;548;48.778;9.252;2023-08-06T14:19:00;74.27;;;28.97;;
1122;SDS011;548;48.778;9.252;2023-08-06T14:21:28;71.50;;;29.10;;
1122;SDS011;548;48.778;9.252;2023-08-06T14:23:55;72.40;;;29.10;;
1122;SDS011;548;48.778;9.252;2023-08-06T14:26:25;71.40;;;28.23;;
1122;SDS011;548;48.778;9.252;2023-08-06T14:28:52;72.37;;;29.97;;
1122;SDS011;548;48.778;9.252;2023-08-06T14:31:20;75.63;;;28.17;;
1122;SDS011;548;48.778;9.252;2023-08-06T14:33:47;71.73;;;29.20;;
1122;SDS011;548;48.778;9.252;2023-08-06T14:36:14;71.47;;;28.37;;
1122;SDS011;548;48.778;9.252;2023-08-06T14:38:43;72.23;;;29.50;;
1122;SDS011;548;48.778;9.252;2023-08-06T14:41:09;72.03;;;29.20;;
1122;SDS011;548;48.778;9.252;2023-08-06T14:43:36;71.87;;;27.47;;
1122;SDS011;548;48.778;9.252;2023-08-06T14:46:06;72.70;;;30.23;;
1122;SDS011;548;48.778;9.252;2023-08-06T14:48:33;72.30;;;29.77;;
1122;SDS011;548;48.778;9.252;2023-08-06T14:50:59;72.00;;;29.70;;
1122;SDS011;548;48.778;9.252;2023-08-06T14:53:26;73.17;;;31.53;;
1122;SDS011;548;48.778;9.252;2023-08-06T14:55:55;75.30;;;32.90;;
1122;SDS011;548;48.778;9.252;2023-08-06T14:58:21;73.90;;;32.90;;
1122;SDS011;548;48.778;9.252;2023-08-06T15:00:48;73.37;;;30.57;;
1122;SDS011;548;48.778;9.252;2023-08-06T15:03:15;72.97;;;30.03;;
1122;SDS011;548;48.778;9.252;2023-08-06T15:05:46;73.37;;;30.70;;
1122;SDS011;548;48.778;9.252;2023-08-06T15:08:13;74.20;;;32.40;;
1122;SDS011;548;48.778;9.252;2023-08-06T15:10:40;74.00;;;32.67;;
1122;SDS011;548;48.778;9.252;2023-08-06T15:13:08;76.37;;;36.90;;
1122;SDS011;548;48.778;9.252;2023-08-06T15:15:34;75.67;;;36.70;;
1122;SDS011;548;48.778;9.252;2023-08-06T15:18:07;75.00;;;33.40;;
1122;SDS011;548;48.778;9.252;2023-08-06T15:20:34;73.77;;;31.93;;
1122;SDS011;548;48.778;9.252;2023-08-06T15:23:00;73.60;;;31.27;;